sensor_id;sensor_type;location;lat;lon;timestamp;temperature;humidity
4548;DHT22;2286;51.570;7.090;2022-12-29T00:00:55;9.60;99.90
4548;DHT22;2286;51.570;7.090;2022-12-29T00:03:22;9.60;99.90
4548;DHT22;2286;51.570;7.090;2022-12-29T00:05:54;9.70;99.90
4548;DHT22;2286;51.570;7.090;2022-12-29T00:08:21;9.70;99.90
4548;DHT22;2286;51.570;7.090;2022-12-29T00:11:06;9.80;99.90
4548;DHT22;2286;51.570;7.090;2022-12-29T00:13:34;9.80;99.90
4548;DHT22;2286;51.570;7.090;2022-12-29T00:16:18;9.80;99.90
4548;DHT22;2286;51.570;7.090;2022-12-29T00:18:45;9.80;99.90
4548;DHT22;2286;51.570;7.090;2022-12-29T00:21:14;9.80;99.90
4548;DHT22;2286;51.570;7.090;2022-12-29T00:23:58;9.80;99.90
4548;DHT22;2286;51.570;7.090;2022-12-29T00:26:44;9.80;99.90
4548;DHT22;2286;51.570;7.090;2022-12-29T00:29:29;9.80;99.90
4548;DHT22;2286;51.570;7.090;2022-12-29T00:32:13;9.80;99.90
4548;DHT22;2286;51.570;7.090;2022-12-29T00:35:00;9.80;99.90
4548;DHT22;2286;51.570;7.090;2022-12-29T00:37:36;9.80;99.90
4548;DHT22;2286;51.570;7.090;2022-12-29T00:40:22;9.70;99.90
4548;DHT22;2286;51.570;7.090;2022-12-29T00:43:08;9.70;99.90
4548;DHT22;2286;51.570;7.090;2022-12-29T00:45:52;9.70;99.90
4548;DHT22;2286;51.570;7.090;2022-12-29T00:48:19;9.70;99.90
4548;DHT22;2286;51.570;7.090;2022-12-29T00:51:00;9.70;99.90
4548;DHT22;2286;51.570;7.090;2022-12-29T00:53:27;9.70;99.90
4548;DHT22;2286;51.570;7.090;2022-12-29T00:55:54;9.70;99.90
4548;DHT22;2286;51.570;7.090;2022-12-29T00:58:22;9.70;99.90
4548;DHT22;2286;51.570;7.090;2022-12-29T01:00:49;9.70;99.90
4548;DHT22;2286;51.570;7.090;2022-12-29T01:03:16;9.70;99.90
4548;DHT22;2286;51.570;7.090;2022-12-29T01:05:43;9.70;99.90
4548;DHT22;2286;51.570;7.090;2022-12-29T01:08:10;9.70;99.90
4548;DHT22;2286;51.570;7.090;2022-12-29T01:10:37;9.70;99.90
4548;DHT22;2286;51.570;7.090;2022-12-29T01:13:03;9.70;99.90
4548;DHT22;2286;51.570;7.090;2022-12-29T01:15:31;9.80;99.90
4548;DHT22;2286;51.570;7.090;2022-12-29T01:17:58;9.80;99.90
4548;DHT22;2286;51.570;7.090;2022-12-29T01:20:25;9.80;99.90
4548;DHT22;2286;51.570;7.090;2022-12-29T01:22:54;9.70;99.90
4548;DHT22;2286;51.570;7.090;2022-12-29T01:25:21;9.70;99.90
4548;DHT22;2286;51.570;7.090;2022-12-29T01:27:48;9.80;99.90
4548;DHT22;2286;51.570;7.090;2022-12-29T01:30:15;9.80;99.90
4548;DHT22;2286;51.570;7.090;2022-12-29T01:32:43;9.70;99.90
4548;DHT22;2286;51.570;7.090;2022-12-29T01:35:10;9.80;99.90
4548;DHT22;2286;51.570;7.090;2022-12-29T01:37:37;9.80;99.90
4548;DHT22;2286;51.570;7.090;2022-12-29T01:40:05;9.80;99.90
4548;DHT22;2286;51.570;7.090;2022-12-29T01:42:32;9.90;99.90
4548;DHT22;2286;51.570;7.090;2022-12-29T01:45:00;9.90;99.90
4548;DHT22;2286;51.570;7.090;2022-12-29T01:47:34;9.90;99.90
4548;DHT22;2286;51.570;7.090;2022-12-29T01:50:08;10.00;99.90
4548;DHT22;2286;51.570;7.090;2022-12-29T01:52:37;10.00;99.90
4548;DHT22;2286;51.570;7.090;2022-12-29T01:55:06;10.00;99.90
4548;DHT22;2286;51.570;7.090;2022-12-29T01:57:38;10.00;99.90
4548;DHT22;2286;51.570;7.090;2022-12-29T02:00:09;10.10;99.90
4548;DHT22;2286;51.570;7.090;2022-12-29T02:02:37;10.10;99.90
4548;DHT22;2286;51.570;7.090;2022-12-29T02:05:10;10.20;99.90
4548;DHT22;2286;51.570;7.090;2022-12-29T02:07:38;10.30;99.90
4548;DHT22;2286;51.570;7.090;2022-12-29T02:10:06;10.30;99.90
4548;DHT22;2286;51.570;7.090;2022-12-29T02:12:33;10.30;99.90
4548;DHT22;2286;51.570;7.090;2022-12-29T02:15:02;10.40;99.90
4548;DHT22;2286;51.570;7.090;2022-12-29T02:17:42;10.40;99.90
4548;DHT22;2286;51.570;7.090;2022-12-29T02:20:39;10.40;99.90
4548;DHT22;2286;51.570;7.090;2022-12-29T02:23:33;10.40;99.90
4548;DHT22;2286;51.570;7.090;2022-12-29T02:26:15;10.40;99.90
4548;DHT22;2286;51.570;7.090;2022-12-29T02:29:21;10.50;99.90
4548;DHT22;2286;51.570;7.090;2022-12-29T02:31:58;10.60;99.90
4548;DHT22;2286;51.570;7.090;2022-12-29T02:34:34;10.60;99.90
4548;DHT22;2286;51.570;7.090;2022-12-29T02:37:08;10.60;99.90
4548;DHT22;2286;51.570;7.090;2022-12-29T02:39:43;10.70;99.90
4548;DHT22;2286;51.570;7.090;2022-12-29T02:42:22;10.70;99.90
4548;DHT22;2286;51.570;7.090;2022-12-29T02:44:56;10.70;99.90
4548;DHT22;2286;51.570;7.090;2022-12-29T02:47:35;10.80;1.00
4548;DHT22;2286;51.570;7.090;2022-12-29T02:50:06;10.80;1.00
4548;DHT22;2286;51.570;7.090;2022-12-29T02:52:38;10.80;1.00
4548;DHT22;2286;51.570;7.090;2022-12-29T02:55:08;10.90;1.00
4548;DHT22;2286;51.570;7.090;2022-12-29T02:57:35;10.80;1.00
4548;DHT22;2286;51.570;7.090;2022-12-29T03:00:05;10.80;1.00
4548;DHT22;2286;51.570;7.090;2022-12-29T03:03:00;11.00;1.00
4548;DHT22;2286;51.570;7.090;2022-12-29T03:05:48;11.00;1.00
4548;DHT22;2286;51.570;7.090;2022-12-29T03:08:28;11.00;99.90
4548;DHT22;2286;51.570;7.090;2022-12-29T03:11:01;11.00;99.90
4548;DHT22;2286;51.570;7.090;2022-12-29T03:13:36;11.00;99.90
4548;DHT22;2286;51.570;7.090;2022-12-29T03:16:27;11.00;99.90
4548;DHT22;2286;51.570;7.090;2022-12-29T03:19:02;11.00;99.90
4548;DHT22;2286;51.570;7.090;2022-12-29T03:21:35;10.90;1.00
4548;DHT22;2286;51.570;7.090;2022-12-29T03:24:25;10.80;1.00
4548;DHT22;2286;51.570;7.090;2022-12-29T03:26:55;10.70;1.00
4548;DHT22;2286;51.570;7.090;2022-12-29T03:29:24;10.70;1.00
4548;DHT22;2286;51.570;7.090;2022-12-29T03:31:52;10.70;1.00
4548;DHT22;2286;51.570;7.090;2022-12-29T03:34:22;10.70;1.00
4548;DHT22;2286;51.570;7.090;2022-12-29T03:36:53;10.80;1.00
4548;DHT22;2286;51.570;7.090;2022-12-29T03:39:22;10.90;99.90
4548;DHT22;2286;51.570;7.090;2022-12-29T03:41:54;10.90;99.90
4548;DHT22;2286;51.570;7.090;2022-12-29T03:44:31;10.90;10.40
4548;DHT22;2286;51.570;7.090;2022-12-29T03:46:59;10.80;99.90
4548;DHT22;2286;51.570;7.090;2022-12-29T03:49:27;10.90;1.00
4548;DHT22;2286;51.570;7.090;2022-12-29T03:51:54;10.90;1.00
4548;DHT22;2286;51.570;7.090;2022-12-29T03:54:21;10.90;1.00
4548;DHT22;2286;51.570;7.090;2022-12-29T03:56:48;11.00;1.00
4548;DHT22;2286;51.570;7.090;2022-12-29T03:59:16;11.00;99.90
4548;DHT22;2286;51.570;7.090;2022-12-29T04:01:43;11.00;99.90
4548;DHT22;2286;51.570;7.090;2022-12-29T04:04:10;11.10;99.90
4548;DHT22;2286;51.570;7.090;2022-12-29T04:06:39;11.10;8.80
4548;DHT22;2286;51.570;7.090;2022-12-29T04:09:06;11.00;99.90
4548;DHT22;2286;51.570;7.090;2022-12-29T04:11:33;11.00;99.90
4548;DHT22;2286;51.570;7.090;2022-12-29T04:14:01;11.00;99.90
4548;DHT22;2286;51.570;7.090;2022-12-29T04:16:28;10.90;99.90
4548;DHT22;2286;51.570;7.090;2022-12-29T04:18:55;11.00;99.90
4548;DHT22;2286;51.570;7.090;2022-12-29T04:21:21;10.90;99.90
4548;DHT22;2286;51.570;7.090;2022-12-29T04:23:50;11.00;1.00
4548;DHT22;2286;51.570;7.090;2022-12-29T04:26:17;11.10;1.00
4548;DHT22;2286;51.570;7.090;2022-12-29T04:28:44;11.00;99.90
4548;DHT22;2286;51.570;7.090;2022-12-29T04:31:11;10.90;1.00
4548;DHT22;2286;51.570;7.090;2022-12-29T04:33:38;11.00;99.90
4548;DHT22;2286;51.570;7.090;2022-12-29T04:36:05;11.10;99.90
4548;DHT22;2286;51.570;7.090;2022-12-29T04:38:32;11.00;99.90
4548;DHT22;2286;51.570;7.090;2022-12-29T04:41:01;11.00;99.90
4548;DHT22;2286;51.570;7.090;2022-12-29T04:43:28;11.10;99.90
4548;DHT22;2286;51.570;7.090;2022-12-29T04:45:55;11.20;1.00
4548;DHT22;2286;51.570;7.090;2022-12-29T04:48:23;11.40;1.00
4548;DHT22;2286;51.570;7.090;2022-12-29T04:50:50;11.30;6.80
4548;DHT22;2286;51.570;7.090;2022-12-29T04:53:17;11.40;99.90
4548;DHT22;2286;51.570;7.090;2022-12-29T04:55:47;11.50;99.90
4548;DHT22;2286;51.570;7.090;2022-12-29T04:58:16;11.60;1.00
4548;DHT22;2286;51.570;7.090;2022-12-29T05:00:43;11.70;9.40
4548;DHT22;2286;51.570;7.090;2022-12-29T05:03:10;11.70;1.00
4548;DHT22;2286;51.570;7.090;2022-12-29T05:05:37;11.80;1.00
4548;DHT22;2286;51.570;7.090;2022-12-29T05:08:04;11.80;99.90
4548;DHT22;2286;51.570;7.090;2022-12-29T05:10:31;11.80;99.90
4548;DHT22;2286;51.570;7.090;2022-12-29T05:12:58;11.90;99.90
4548;DHT22;2286;51.570;7.090;2022-12-29T05:15:27;11.90;1.00
4548;DHT22;2286;51.570;7.090;2022-12-29T05:17:54;11.90;1.00
4548;DHT22;2286;51.570;7.090;2022-12-29T05:20:21;11.90;1.00
4548;DHT22;2286;51.570;7.090;2022-12-29T05:22:48;11.90;99.90
4548;DHT22;2286;51.570;7.090;2022-12-29T05:25:16;11.90;1.00
4548;DHT22;2286;51.570;7.090;2022-12-29T05:27:42;12.00;99.90
4548;DHT22;2286;51.570;7.090;2022-12-29T05:30:11;12.00;99.90
4548;DHT22;2286;51.570;7.090;2022-12-29T05:32:39;12.00;99.90
4548;DHT22;2286;51.570;7.090;2022-12-29T05:35:07;12.00;1.00
4548;DHT22;2286;51.570;7.090;2022-12-29T05:37:34;11.70;99.90
4548;DHT22;2286;51.570;7.090;2022-12-29T05:40:02;11.30;99.90
4548;DHT22;2286;51.570;7.090;2022-12-29T05:42:29;10.90;99.90
4548;DHT22;2286;51.570;7.090;2022-12-29T05:44:56;10.60;1.00
4548;DHT22;2286;51.570;7.090;2022-12-29T05:47:23;10.40;2.70
4548;DHT22;2286;51.570;7.090;2022-12-29T05:49:51;10.30;99.90
4548;DHT22;2286;51.570;7.090;2022-12-29T05:52:18;10.20;99.90
4548;DHT22;2286;51.570;7.090;2022-12-29T05:54:45;10.20;92.90
4548;DHT22;2286;51.570;7.090;2022-12-29T05:57:12;10.30;1.00
4548;DHT22;2286;51.570;7.090;2022-12-29T05:59:39;10.70;1.00
4548;DHT22;2286;51.570;7.090;2022-12-29T06:02:06;10.90;99.90
4548;DHT22;2286;51.570;7.090;2022-12-29T06:04:33;11.20;99.90
4548;DHT22;2286;51.570;7.090;2022-12-29T06:07:02;11.30;1.00
4548;DHT22;2286;51.570;7.090;2022-12-29T06:09:29;11.40;1.00
4548;DHT22;2286;51.570;7.090;2022-12-29T06:11:56;11.40;1.00
4548;DHT22;2286;51.570;7.090;2022-12-29T06:14:23;11.40;99.90
4548;DHT22;2286;51.570;7.090;2022-12-29T06:16:50;11.40;93.70
4548;DHT22;2286;51.570;7.090;2022-12-29T06:19:17;11.30;99.90
4548;DHT22;2286;51.570;7.090;2022-12-29T06:21:44;11.30;1.00
4548;DHT22;2286;51.570;7.090;2022-12-29T06:24:12;11.20;99.90
4548;DHT22;2286;51.570;7.090;2022-12-29T06:26:39;11.10;99.90
4548;DHT22;2286;51.570;7.090;2022-12-29T06:29:08;11.00;1.00
4548;DHT22;2286;51.570;7.090;2022-12-29T06:31:35;11.00;1.00
4548;DHT22;2286;51.570;7.090;2022-12-29T06:34:02;11.00;99.90
4548;DHT22;2286;51.570;7.090;2022-12-29T06:36:29;11.10;99.90
4548;DHT22;2286;51.570;7.090;2022-12-29T06:38:56;11.00;99.90
4548;DHT22;2286;51.570;7.090;2022-12-29T06:41:25;11.00;1.00
4548;DHT22;2286;51.570;7.090;2022-12-29T06:43:52;11.10;1.00
4548;DHT22;2286;51.570;7.090;2022-12-29T06:46:19;11.00;1.00
4548;DHT22;2286;51.570;7.090;2022-12-29T06:48:46;11.10;16.70
4548;DHT22;2286;51.570;7.090;2022-12-29T06:51:13;11.10;1.00
4548;DHT22;2286;51.570;7.090;2022-12-29T06:53:39;11.10;1.00
4548;DHT22;2286;51.570;7.090;2022-12-29T06:56:07;11.10;99.90
4548;DHT22;2286;51.570;7.090;2022-12-29T06:58:35;11.20;99.90
4548;DHT22;2286;51.570;7.090;2022-12-29T07:01:03;11.20;1.00
4548;DHT22;2286;51.570;7.090;2022-12-29T07:03:30;11.10;1.00
4548;DHT22;2286;51.570;7.090;2022-12-29T07:05:57;11.10;1.00
4548;DHT22;2286;51.570;7.090;2022-12-29T07:08:25;11.10;1.00
4548;DHT22;2286;51.570;7.090;2022-12-29T07:10:52;11.10;1.00
4548;DHT22;2286;51.570;7.090;2022-12-29T07:13:18;11.20;1.00
4548;DHT22;2286;51.570;7.090;2022-12-29T07:15:47;11.10;1.00
4548;DHT22;2286;51.570;7.090;2022-12-29T07:18:14;11.10;1.00
4548;DHT22;2286;51.570;7.090;2022-12-29T07:20:41;11.10;1.00
4548;DHT22;2286;51.570;7.090;2022-12-29T07:23:08;11.20;99.90
4548;DHT22;2286;51.570;7.090;2022-12-29T07:25:35;11.20;99.90
4548;DHT22;2286;51.570;7.090;2022-12-29T07:28:03;11.20;1.00
4548;DHT22;2286;51.570;7.090;2022-12-29T07:30:30;11.20;99.90
4548;DHT22;2286;51.570;7.090;2022-12-29T07:32:58;11.20;99.90
4548;DHT22;2286;51.570;7.090;2022-12-29T07:35:25;11.10;1.00
4548;DHT22;2286;51.570;7.090;2022-12-29T07:37:52;11.20;99.90
4548;DHT22;2286;51.570;7.090;2022-12-29T07:40:19;11.20;1.00
4548;DHT22;2286;51.570;7.090;2022-12-29T07:42:46;11.10;99.90
4548;DHT22;2286;51.570;7.090;2022-12-29T07:45:13;11.20;99.90
4548;DHT22;2286;51.570;7.090;2022-12-29T07:47:40;11.20;1.00
4548;DHT22;2286;51.570;7.090;2022-12-29T07:50:09;11.20;1.00
4548;DHT22;2286;51.570;7.090;2022-12-29T07:52:36;11.20;1.00
4548;DHT22;2286;51.570;7.090;2022-12-29T07:55:03;11.20;1.00
4548;DHT22;2286;51.570;7.090;2022-12-29T07:57:30;11.20;99.90
4548;DHT22;2286;51.570;7.090;2022-12-29T07:59:58;11.20;1.00
4548;DHT22;2286;51.570;7.090;2022-12-29T08:02:25;11.20;1.00
4548;DHT22;2286;51.570;7.090;2022-12-29T08:04:52;11.30;99.90
4548;DHT22;2286;51.570;7.090;2022-12-29T08:07:21;11.30;99.90
4548;DHT22;2286;51.570;7.090;2022-12-29T08:09:48;11.30;99.90
4548;DHT22;2286;51.570;7.090;2022-12-29T08:12:15;11.30;96.50
4548;DHT22;2286;51.570;7.090;2022-12-29T08:14:42;11.30;60.70
4548;DHT22;2286;51.570;7.090;2022-12-29T08:17:09;11.30;1.30
4548;DHT22;2286;51.570;7.090;2022-12-29T08:19:36;11.30;1.00
4548;DHT22;2286;51.570;7.090;2022-12-29T08:22:03;11.30;1.00
4548;DHT22;2286;51.570;7.090;2022-12-29T08:24:32;11.20;99.90
4548;DHT22;2286;51.570;7.090;2022-12-29T08:26:58;11.20;99.90
4548;DHT22;2286;51.570;7.090;2022-12-29T08:29:25;11.30;1.00
4548;DHT22;2286;51.570;7.090;2022-12-29T08:31:52;11.30;1.00
4548;DHT22;2286;51.570;7.090;2022-12-29T08:34:19;11.30;99.90
4548;DHT22;2286;51.570;7.090;2022-12-29T08:36:47;11.40;99.90
4548;DHT22;2286;51.570;7.090;2022-12-29T08:39:14;11.30;1.00
4548;DHT22;2286;51.570;7.090;2022-12-29T08:41:42;11.20;99.90
4548;DHT22;2286;51.570;7.090;2022-12-29T08:44:09;10.90;99.90
4548;DHT22;2286;51.570;7.090;2022-12-29T08:46:36;10.80;99.90
4548;DHT22;2286;51.570;7.090;2022-12-29T08:49:03;10.70;1.00
4548;DHT22;2286;51.570;7.090;2022-12-29T08:51:30;10.70;99.90
4548;DHT22;2286;51.570;7.090;2022-12-29T08:53:58;10.70;99.90
4548;DHT22;2286;51.570;7.090;2022-12-29T08:56:25;10.70;99.90
4548;DHT22;2286;51.570;7.090;2022-12-29T08:58:54;10.70;1.00
4548;DHT22;2286;51.570;7.090;2022-12-29T09:01:21;10.60;4.80
4548;DHT22;2286;51.570;7.090;2022-12-29T09:03:49;10.70;1.00
4548;DHT22;2286;51.570;7.090;2022-12-29T09:06:17;10.70;99.90
4548;DHT22;2286;51.570;7.090;2022-12-29T09:08:44;10.90;99.90
4548;DHT22;2286;51.570;7.090;2022-12-29T09:11:13;11.00;93.60
4548;DHT22;2286;51.570;7.090;2022-12-29T09:13:41;11.10;1.00
4548;DHT22;2286;51.570;7.090;2022-12-29T09:16:09;11.20;1.00
4548;DHT22;2286;51.570;7.090;2022-12-29T09:18:36;11.30;99.90
4548;DHT22;2286;51.570;7.090;2022-12-29T09:21:05;11.40;99.90
4548;DHT22;2286;51.570;7.090;2022-12-29T09:23:33;11.40;1.00
4548;DHT22;2286;51.570;7.090;2022-12-29T09:26:01;11.40;99.90
4548;DHT22;2286;51.570;7.090;2022-12-29T09:28:28;11.40;99.90
4548;DHT22;2286;51.570;7.090;2022-12-29T09:30:56;11.40;99.90
4548;DHT22;2286;51.570;7.090;2022-12-29T09:33:25;11.40;99.90
4548;DHT22;2286;51.570;7.090;2022-12-29T09:35:54;11.40;99.90
4548;DHT22;2286;51.570;7.090;2022-12-29T09:38:22;11.40;99.90
4548;DHT22;2286;51.570;7.090;2022-12-29T09:40:50;11.30;99.90
4548;DHT22;2286;51.570;7.090;2022-12-29T09:43:33;11.30;99.90
4548;DHT22;2286;51.570;7.090;2022-12-29T09:46:11;11.30;99.90
4548;DHT22;2286;51.570;7.090;2022-12-29T09:48:45;11.30;99.90
4548;DHT22;2286;51.570;7.090;2022-12-29T09:51:16;11.30;99.90
4548;DHT22;2286;51.570;7.090;2022-12-29T09:53:48;11.30;99.90
4548;DHT22;2286;51.570;7.090;2022-12-29T09:56:19;11.30;99.90
4548;DHT22;2286;51.570;7.090;2022-12-29T09:58:52;11.30;99.90
4548;DHT22;2286;51.570;7.090;2022-12-29T10:01:28;11.30;99.90
4548;DHT22;2286;51.570;7.090;2022-12-29T10:03:59;11.30;99.90
4548;DHT22;2286;51.570;7.090;2022-12-29T10:06:34;11.30;99.90
4548;DHT22;2286;51.570;7.090;2022-12-29T10:09:13;11.30;99.90
4548;DHT22;2286;51.570;7.090;2022-12-29T10:11:55;11.30;99.90
4548;DHT22;2286;51.570;7.090;2022-12-29T10:14:38;11.30;57.50
4548;DHT22;2286;51.570;7.090;2022-12-29T10:17:13;11.40;1.00
4548;DHT22;2286;51.570;7.090;2022-12-29T10:22:47;11.50;1.00
4548;DHT22;2286;51.570;7.090;2022-12-29T10:25:19;11.60;99.90
4548;DHT22;2286;51.570;7.090;2022-12-29T10:27:48;11.60;99.90
4548;DHT22;2286;51.570;7.090;2022-12-29T10:30:17;11.70;99.90
4548;DHT22;2286;51.570;7.090;2022-12-29T10:32:47;11.70;99.90
4548;DHT22;2286;51.570;7.090;2022-12-29T10:35:19;11.70;99.90
4548;DHT22;2286;51.570;7.090;2022-12-29T10:37:50;11.70;99.90
4548;DHT22;2286;51.570;7.090;2022-12-29T10:40:23;11.60;99.90
4548;DHT22;2286;51.570;7.090;2022-12-29T10:42:53;11.50;99.90
4548;DHT22;2286;51.570;7.090;2022-12-29T10:45:23;11.50;99.90
4548;DHT22;2286;51.570;7.090;2022-12-29T10:47:55;11.60;97.20
4548;DHT22;2286;51.570;7.090;2022-12-29T10:50:26;11.60;73.80
4548;DHT22;2286;51.570;7.090;2022-12-29T10:52:56;11.50;1.00
4548;DHT22;2286;51.570;7.090;2022-12-29T10:55:28;11.50;1.00
4548;DHT22;2286;51.570;7.090;2022-12-29T10:58:02;11.50;1.00
4548;DHT22;2286;51.570;7.090;2022-12-29T11:00:31;11.50;1.00
4548;DHT22;2286;51.570;7.090;2022-12-29T11:05:47;11.50;1.00
4548;DHT22;2286;51.570;7.090;2022-12-29T11:08:18;11.40;1.00
4548;DHT22;2286;51.570;7.090;2022-12-29T11:10:57;11.50;1.00
4548;DHT22;2286;51.570;7.090;2022-12-29T11:13:26;11.50;1.00
4548;DHT22;2286;51.570;7.090;2022-12-29T11:15:54;11.50;1.00
4548;DHT22;2286;51.570;7.090;2022-12-29T11:18:22;11.50;1.00
4548;DHT22;2286;51.570;7.090;2022-12-29T11:20:53;11.50;1.00
4548;DHT22;2286;51.570;7.090;2022-12-29T11:23:24;11.50;1.00
4548;DHT22;2286;51.570;7.090;2022-12-29T11:26:13;11.50;1.00
4548;DHT22;2286;51.570;7.090;2022-12-29T11:28:42;11.50;1.00
4548;DHT22;2286;51.570;7.090;2022-12-29T11:31:10;11.50;1.00
4548;DHT22;2286;51.570;7.090;2022-12-29T11:33:41;11.40;1.00
4548;DHT22;2286;51.570;7.090;2022-12-29T11:36:14;11.40;1.00
4548;DHT22;2286;51.570;7.090;2022-12-29T11:38:46;11.40;1.00
4548;DHT22;2286;51.570;7.090;2022-12-29T11:41:24;11.40;1.00
4548;DHT22;2286;51.570;7.090;2022-12-29T11:43:52;11.40;1.00
4548;DHT22;2286;51.570;7.090;2022-12-29T11:46:23;11.50;1.00
4548;DHT22;2286;51.570;7.090;2022-12-29T11:48:51;11.50;1.00
4548;DHT22;2286;51.570;7.090;2022-12-29T11:51:24;11.50;1.00
4548;DHT22;2286;51.570;7.090;2022-12-29T11:53:55;11.60;1.00
4548;DHT22;2286;51.570;7.090;2022-12-29T11:56:33;11.60;1.00
4548;DHT22;2286;51.570;7.090;2022-12-29T11:59:34;11.60;1.00
4548;DHT22;2286;51.570;7.090;2022-12-29T12:02:13;11.50;1.00
4548;DHT22;2286;51.570;7.090;2022-12-29T12:04:47;11.50;1.00
4548;DHT22;2286;51.570;7.090;2022-12-29T12:07:19;11.50;1.00
4548;DHT22;2286;51.570;7.090;2022-12-29T12:09:51;11.50;1.00
4548;DHT22;2286;51.570;7.090;2022-12-29T12:12:23;11.50;1.00
4548;DHT22;2286;51.570;7.090;2022-12-29T12:14:54;11.50;1.00
4548;DHT22;2286;51.570;7.090;2022-12-29T12:17:28;11.50;1.00
4548;DHT22;2286;51.570;7.090;2022-12-29T12:20:10;11.50;1.00
4548;DHT22;2286;51.570;7.090;2022-12-29T12:22:48;11.60;1.00
4548;DHT22;2286;51.570;7.090;2022-12-29T12:25:20;11.60;1.00
4548;DHT22;2286;51.570;7.090;2022-12-29T12:27:51;11.50;1.00
4548;DHT22;2286;51.570;7.090;2022-12-29T12:30:21;11.50;1.00
4548;DHT22;2286;51.570;7.090;2022-12-29T12:32:54;11.50;1.00
4548;DHT22;2286;51.570;7.090;2022-12-29T12:35:43;11.50;1.00
4548;DHT22;2286;51.570;7.090;2022-12-29T12:38:24;11.50;1.00
4548;DHT22;2286;51.570;7.090;2022-12-29T12:41:00;11.50;1.00
4548;DHT22;2286;51.570;7.090;2022-12-29T12:43:45;11.40;1.00
4548;DHT22;2286;51.570;7.090;2022-12-29T12:52:29;11.30;1.00
4548;DHT22;2286;51.570;7.090;2022-12-29T12:55:18;11.20;1.00
4548;DHT22;2286;51.570;7.090;2022-12-29T12:57:53;11.30;1.00
4548;DHT22;2286;51.570;7.090;2022-12-29T13:00:24;11.30;1.00
4548;DHT22;2286;51.570;7.090;2022-12-29T13:03:03;11.30;1.00
4548;DHT22;2286;51.570;7.090;2022-12-29T13:08:43;11.30;1.00
4548;DHT22;2286;51.570;7.090;2022-12-29T13:11:20;11.30;1.00
4548;DHT22;2286;51.570;7.090;2022-12-29T13:14:01;11.30;1.00
4548;DHT22;2286;51.570;7.090;2022-12-29T13:16:36;11.30;1.00
4548;DHT22;2286;51.570;7.090;2022-12-29T13:19:10;11.30;1.00
4548;DHT22;2286;51.570;7.090;2022-12-29T13:21:50;11.30;1.00
4548;DHT22;2286;51.570;7.090;2022-12-29T13:24:26;11.30;1.00
4548;DHT22;2286;51.570;7.090;2022-12-29T13:27:01;11.30;1.00
4548;DHT22;2286;51.570;7.090;2022-12-29T13:29:35;11.30;1.00
4548;DHT22;2286;51.570;7.090;2022-12-29T13:32:18;11.40;1.00
4548;DHT22;2286;51.570;7.090;2022-12-29T13:34:54;11.40;1.00
4548;DHT22;2286;51.570;7.090;2022-12-29T13:37:27;11.40;1.00
4548;DHT22;2286;51.570;7.090;2022-12-29T13:39:59;11.30;1.00
4548;DHT22;2286;51.570;7.090;2022-12-29T13:42:30;11.40;1.00
4548;DHT22;2286;51.570;7.090;2022-12-29T13:44:59;11.40;1.00
4548;DHT22;2286;51.570;7.090;2022-12-29T13:47:31;11.30;1.00
4548;DHT22;2286;51.570;7.090;2022-12-29T13:50:01;11.30;1.00
4548;DHT22;2286;51.570;7.090;2022-12-29T13:52:34;11.20;1.00
4548;DHT22;2286;51.570;7.090;2022-12-29T13:55:21;11.20;1.00
4548;DHT22;2286;51.570;7.090;2022-12-29T13:57:56;11.30;1.00
4548;DHT22;2286;51.570;7.090;2022-12-29T14:00:29;11.50;1.00
4548;DHT22;2286;51.570;7.090;2022-12-29T14:03:17;11.50;1.00
4548;DHT22;2286;51.570;7.090;2022-12-29T14:06:04;11.50;1.00
4548;DHT22;2286;51.570;7.090;2022-12-29T14:08:34;11.50;1.00
4548;DHT22;2286;51.570;7.090;2022-12-29T14:11:08;11.40;1.00
4548;DHT22;2286;51.570;7.090;2022-12-29T14:13:40;11.40;1.00
4548;DHT22;2286;51.570;7.090;2022-12-29T14:16:12;11.30;1.00
4548;DHT22;2286;51.570;7.090;2022-12-29T14:18:50;11.30;1.00
4548;DHT22;2286;51.570;7.090;2022-12-29T14:21:22;11.30;1.00
4548;DHT22;2286;51.570;7.090;2022-12-29T14:23:53;11.20;1.00
4548;DHT22;2286;51.570;7.090;2022-12-29T14:26:35;11.10;1.00
4548;DHT22;2286;51.570;7.090;2022-12-29T14:29:46;11.00;1.00
4548;DHT22;2286;51.570;7.090;2022-12-29T14:32:41;11.00;19.70
4548;DHT22;2286;51.570;7.090;2022-12-29T14:35:41;10.90;99.90
4548;DHT22;2286;51.570;7.090;2022-12-29T14:38:22;10.60;1.00
4548;DHT22;2286;51.570;7.090;2022-12-29T14:40:51;10.50;1.00
4548;DHT22;2286;51.570;7.090;2022-12-29T14:43:25;10.40;99.90
4548;DHT22;2286;51.570;7.090;2022-12-29T14:45:56;10.30;1.00
4548;DHT22;2286;51.570;7.090;2022-12-29T14:48:38;10.30;1.00
4548;DHT22;2286;51.570;7.090;2022-12-29T14:51:29;10.40;99.90
4548;DHT22;2286;51.570;7.090;2022-12-29T14:53:57;10.40;1.00
4548;DHT22;2286;51.570;7.090;2022-12-29T14:56:27;10.50;99.90
4548;DHT22;2286;51.570;7.090;2022-12-29T14:58:56;10.60;99.90
4548;DHT22;2286;51.570;7.090;2022-12-29T15:01:35;10.50;99.90
4548;DHT22;2286;51.570;7.090;2022-12-29T15:04:13;10.60;69.10
4548;DHT22;2286;51.570;7.090;2022-12-29T15:06:42;10.60;1.00
4548;DHT22;2286;51.570;7.090;2022-12-29T15:09:19;10.70;1.00
4548;DHT22;2286;51.570;7.090;2022-12-29T15:11:51;10.70;1.00
4548;DHT22;2286;51.570;7.090;2022-12-29T15:14:31;10.70;1.00
4548;DHT22;2286;51.570;7.090;2022-12-29T15:17:00;10.70;1.00
4548;DHT22;2286;51.570;7.090;2022-12-29T15:19:27;10.70;1.00
4548;DHT22;2286;51.570;7.090;2022-12-29T15:21:55;10.70;1.00
4548;DHT22;2286;51.570;7.090;2022-12-29T15:24:23;10.70;1.00
4548;DHT22;2286;51.570;7.090;2022-12-29T15:26:52;10.70;1.00
4548;DHT22;2286;51.570;7.090;2022-12-29T15:29:31;10.70;1.00
4548;DHT22;2286;51.570;7.090;2022-12-29T15:32:02;10.70;1.00
4548;DHT22;2286;51.570;7.090;2022-12-29T15:34:37;10.70;1.00
4548;DHT22;2286;51.570;7.090;2022-12-29T15:37:06;10.60;1.00
4548;DHT22;2286;51.570;7.090;2022-12-29T15:39:34;10.60;1.00
4548;DHT22;2286;51.570;7.090;2022-12-29T15:42:05;10.60;1.00
4548;DHT22;2286;51.570;7.090;2022-12-29T15:44:36;10.70;1.00
4548;DHT22;2286;51.570;7.090;2022-12-29T15:47:11;10.60;1.00
4548;DHT22;2286;51.570;7.090;2022-12-29T15:49:38;10.70;1.00
4548;DHT22;2286;51.570;7.090;2022-12-29T15:52:06;10.70;1.00
4548;DHT22;2286;51.570;7.090;2022-12-29T15:54:34;10.60;1.00
4548;DHT22;2286;51.570;7.090;2022-12-29T15:57:02;10.60;1.00
4548;DHT22;2286;51.570;7.090;2022-12-29T15:59:31;10.50;99.90
4548;DHT22;2286;51.570;7.090;2022-12-29T16:02:00;10.40;99.90
4548;DHT22;2286;51.570;7.090;2022-12-29T16:04:30;10.40;99.90
4548;DHT22;2286;51.570;7.090;2022-12-29T16:07:00;10.30;99.90
4548;DHT22;2286;51.570;7.090;2022-12-29T16:09:32;10.40;1.00
4548;DHT22;2286;51.570;7.090;2022-12-29T16:12:01;10.40;1.00
4548;DHT22;2286;51.570;7.090;2022-12-29T16:14:32;10.50;1.00
4548;DHT22;2286;51.570;7.090;2022-12-29T16:17:02;10.50;1.00
4548;DHT22;2286;51.570;7.090;2022-12-29T16:19:35;10.50;1.00
4548;DHT22;2286;51.570;7.090;2022-12-29T16:22:04;10.50;1.00
4548;DHT22;2286;51.570;7.090;2022-12-29T16:24:38;10.50;1.00
4548;DHT22;2286;51.570;7.090;2022-12-29T16:27:08;10.50;1.00
4548;DHT22;2286;51.570;7.090;2022-12-29T16:29:36;10.50;99.90
4548;DHT22;2286;51.570;7.090;2022-12-29T16:32:23;10.50;99.90
4548;DHT22;2286;51.570;7.090;2022-12-29T16:35:11;10.40;99.90
4548;DHT22;2286;51.570;7.090;2022-12-29T16:37:38;10.40;99.90
4548;DHT22;2286;51.570;7.090;2022-12-29T16:40:23;10.30;99.90
4548;DHT22;2286;51.570;7.090;2022-12-29T16:42:55;10.20;99.90
4548;DHT22;2286;51.570;7.090;2022-12-29T16:48:34;10.20;1.00
4548;DHT22;2286;51.570;7.090;2022-12-29T16:51:04;10.00;99.90
4548;DHT22;2286;51.570;7.090;2022-12-29T16:53:34;9.70;99.90
4548;DHT22;2286;51.570;7.090;2022-12-29T16:56:07;9.40;99.90
4548;DHT22;2286;51.570;7.090;2022-12-29T16:58:35;9.20;1.00